sensor_id;sensor_type;location;lat;lon;timestamp;temperature;humidity
22635;DHT22;11484;50.858;4.384;2023-06-04T00:00:43;17.50;57.20
22635;DHT22;11484;50.858;4.384;2023-06-04T00:03:09;17.50;57.30
22635;DHT22;11484;50.858;4.384;2023-06-04T00:05:35;17.50;57.50
22635;DHT22;11484;50.858;4.384;2023-06-04T00:08:01;17.40;57.60
22635;DHT22;11484;50.858;4.384;2023-06-04T00:10:26;17.40;57.70
22635;DHT22;11484;50.858;4.384;2023-06-04T00:12:52;17.40;57.90
22635;DHT22;11484;50.858;4.384;2023-06-04T00:15:18;17.40;58.00
22635;DHT22;11484;50.858;4.384;2023-06-04T00:17:44;17.50;58.00
22635;DHT22;11484;50.858;4.384;2023-06-04T00:20:10;17.50;57.90
22635;DHT22;11484;50.858;4.384;2023-06-04T00:22:36;17.40;58.10
22635;DHT22;11484;50.858;4.384;2023-06-04T00:25:02;17.30;58.40
22635;DHT22;11484;50.858;4.384;2023-06-04T00:27:28;17.20;58.60
22635;DHT22;11484;50.858;4.384;2023-06-04T00:29:54;17.20;58.70
22635;DHT22;11484;50.858;4.384;2023-06-04T00:32:20;17.30;58.80
22635;DHT22;11484;50.858;4.384;2023-06-04T00:34:54;17.20;59.00
22635;DHT22;11484;50.858;4.384;2023-06-04T00:37:22;17.20;59.00
22635;DHT22;11484;50.858;4.384;2023-06-04T00:39:48;17.10;59.30
22635;DHT22;11484;50.858;4.384;2023-06-04T00:42:14;17.00;59.60
22635;DHT22;11484;50.858;4.384;2023-06-04T00:44:39;17.00;59.80
22635;DHT22;11484;50.858;4.384;2023-06-04T00:47:16;16.90;60.10
22635;DHT22;11484;50.858;4.384;2023-06-04T00:49:42;16.90;60.20
22635;DHT22;11484;50.858;4.384;2023-06-04T00:52:09;16.90;60.20
22635;DHT22;11484;50.858;4.384;2023-06-04T00:54:36;16.80;60.40
22635;DHT22;11484;50.858;4.384;2023-06-04T00:57:02;16.80;60.50
22635;DHT22;11484;50.858;4.384;2023-06-04T00:59:29;16.80;60.90
22635;DHT22;11484;50.858;4.384;2023-06-04T01:02:06;16.70;61.00
22635;DHT22;11484;50.858;4.384;2023-06-04T01:07:15;16.30;62.20
22635;DHT22;11484;50.858;4.384;2023-06-04T01:09:41;16.30;62.40
22635;DHT22;11484;50.858;4.384;2023-06-04T01:12:09;16.20;62.60
22635;DHT22;11484;50.858;4.384;2023-06-04T01:14:35;16.10;62.80
22635;DHT22;11484;50.858;4.384;2023-06-04T01:17:11;16.10;63.20
22635;DHT22;11484;50.858;4.384;2023-06-04T01:22:39;16.00;64.50
22635;DHT22;11484;50.858;4.384;2023-06-04T01:25:34;15.90;63.80
22635;DHT22;11484;50.858;4.384;2023-06-04T01:28:05;15.90;64.40
22635;DHT22;11484;50.858;4.384;2023-06-04T01:30:36;15.90;64.30
22635;DHT22;11484;50.858;4.384;2023-06-04T01:33:08;15.90;64.40
22635;DHT22;11484;50.858;4.384;2023-06-04T01:35:34;15.80;64.50
22635;DHT22;11484;50.858;4.384;2023-06-04T01:38:00;15.90;64.30
22635;DHT22;11484;50.858;4.384;2023-06-04T01:40:26;15.90;64.40
22635;DHT22;11484;50.858;4.384;2023-06-04T01:42:52;15.70;64.80
22635;DHT22;11484;50.858;4.384;2023-06-04T01:45:18;15.70;65.40
22635;DHT22;11484;50.858;4.384;2023-06-04T01:47:43;15.70;65.70
22635;DHT22;11484;50.858;4.384;2023-06-04T01:50:09;15.60;65.80
22635;DHT22;11484;50.858;4.384;2023-06-04T01:52:36;15.60;66.00
22635;DHT22;11484;50.858;4.384;2023-06-04T01:55:07;15.70;66.20
22635;DHT22;11484;50.858;4.384;2023-06-04T01:57:34;15.70;66.30
22635;DHT22;11484;50.858;4.384;2023-06-04T02:00:01;15.70;66.50
22635;DHT22;11484;50.858;4.384;2023-06-04T02:02:27;15.60;66.80
22635;DHT22;11484;50.858;4.384;2023-06-04T02:04:54;15.60;67.10
22635;DHT22;11484;50.858;4.384;2023-06-04T02:07:19;15.60;67.40
22635;DHT22;11484;50.858;4.384;2023-06-04T02:09:49;15.50;67.80
22635;DHT22;11484;50.858;4.384;2023-06-04T02:12:15;15.40;68.40
22635;DHT22;11484;50.858;4.384;2023-06-04T02:14:41;15.30;69.00
22635;DHT22;11484;50.858;4.384;2023-06-04T02:17:08;15.20;69.40
22635;DHT22;11484;50.858;4.384;2023-06-04T02:19:42;15.20;69.70
22635;DHT22;11484;50.858;4.384;2023-06-04T02:22:16;15.20;70.10
22635;DHT22;11484;50.858;4.384;2023-06-04T02:24:42;15.10;70.30
22635;DHT22;11484;50.858;4.384;2023-06-04T02:27:09;15.10;70.70
22635;DHT22;11484;50.858;4.384;2023-06-04T02:29:36;15.00;71.20
22635;DHT22;11484;50.858;4.384;2023-06-04T02:32:03;15.00;72.40
22635;DHT22;11484;50.858;4.384;2023-06-04T02:34:29;14.90;72.00
22635;DHT22;11484;50.858;4.384;2023-06-04T02:36:54;14.80;72.50
22635;DHT22;11484;50.858;4.384;2023-06-04T02:39:20;14.80;72.80
22635;DHT22;11484;50.858;4.384;2023-06-04T02:41:46;14.70;73.20
22635;DHT22;11484;50.858;4.384;2023-06-04T02:44:12;14.60;73.50
22635;DHT22;11484;50.858;4.384;2023-06-04T02:46:38;14.60;73.80
22635;DHT22;11484;50.858;4.384;2023-06-04T02:49:04;14.70;73.70
22635;DHT22;11484;50.858;4.384;2023-06-04T02:51:30;14.60;74.00
22635;DHT22;11484;50.858;4.384;2023-06-04T02:53:56;14.60;74.10
22635;DHT22;11484;50.858;4.384;2023-06-04T02:56:22;14.60;74.20
22635;DHT22;11484;50.858;4.384;2023-06-04T02:58:52;14.60;74.20
22635;DHT22;11484;50.858;4.384;2023-06-04T03:01:19;14.70;74.40
22635;DHT22;11484;50.858;4.384;2023-06-04T03:03:46;14.70;74.30
22635;DHT22;11484;50.858;4.384;2023-06-04T03:06:12;14.60;74.70
22635;DHT22;11484;50.858;4.384;2023-06-04T03:08:40;14.60;74.90
22635;DHT22;11484;50.858;4.384;2023-06-04T03:11:06;14.60;75.10
22635;DHT22;11484;50.858;4.384;2023-06-04T03:13:32;14.60;75.20
22635;DHT22;11484;50.858;4.384;2023-06-04T03:15:57;14.70;75.10
22635;DHT22;11484;50.858;4.384;2023-06-04T03:18:28;14.70;75.30
22635;DHT22;11484;50.858;4.384;2023-06-04T03:20:55;14.70;75.30
22635;DHT22;11484;50.858;4.384;2023-06-04T03:23:21;14.70;75.20
22635;DHT22;11484;50.858;4.384;2023-06-04T03:25:47;14.70;75.50
22635;DHT22;11484;50.858;4.384;2023-06-04T03:28:12;14.70;75.60
22635;DHT22;11484;50.858;4.384;2023-06-04T03:30:40;14.60;76.00
22635;DHT22;11484;50.858;4.384;2023-06-04T03:33:07;14.50;76.60
22635;DHT22;11484;50.858;4.384;2023-06-04T03:35:33;14.50;77.00
22635;DHT22;11484;50.858;4.384;2023-06-04T03:37:58;14.50;77.40
22635;DHT22;11484;50.858;4.384;2023-06-04T03:40:24;14.40;77.50
22635;DHT22;11484;50.858;4.384;2023-06-04T03:42:50;14.50;77.50
22635;DHT22;11484;50.858;4.384;2023-06-04T03:45:15;14.30;78.20
22635;DHT22;11484;50.858;4.384;2023-06-04T03:47:41;14.30;78.80
22635;DHT22;11484;50.858;4.384;2023-06-04T03:50:07;14.20;79.30
22635;DHT22;11484;50.858;4.384;2023-06-04T03:52:33;14.00;80.00
22635;DHT22;11484;50.858;4.384;2023-06-04T03:54:59;13.90;80.50
22635;DHT22;11484;50.858;4.384;2023-06-04T03:57:25;13.90;81.00
22635;DHT22;11484;50.858;4.384;2023-06-04T03:59:51;13.90;81.20
22635;DHT22;11484;50.858;4.384;2023-06-04T04:02:17;13.90;81.20
22635;DHT22;11484;50.858;4.384;2023-06-04T04:04:43;14.00;81.30
22635;DHT22;11484;50.858;4.384;2023-06-04T04:07:09;14.00;81.30
22635;DHT22;11484;50.858;4.384;2023-06-04T04:09:36;14.10;81.30
22635;DHT22;11484;50.858;4.384;2023-06-04T04:12:02;14.20;81.30
22635;DHT22;11484;50.858;4.384;2023-06-04T04:14:28;14.20;81.20
22635;DHT22;11484;50.858;4.384;2023-06-04T04:16:54;14.30;81.30
22635;DHT22;11484;50.858;4.384;2023-06-04T04:19:20;14.20;81.70
22635;DHT22;11484;50.858;4.384;2023-06-04T04:21:46;14.20;82.00
22635;DHT22;11484;50.858;4.384;2023-06-04T04:24:25;14.10;82.40
22635;DHT22;11484;50.858;4.384;2023-06-04T04:26:51;13.90;83.40
22635;DHT22;11484;50.858;4.384;2023-06-04T04:29:21;13.90;83.80
22635;DHT22;11484;50.858;4.384;2023-06-04T04:31:54;14.00;83.90
22635;DHT22;11484;50.858;4.384;2023-06-04T04:34:25;14.00;83.90
22635;DHT22;11484;50.858;4.384;2023-06-04T04:36:51;14.00;84.10
22635;DHT22;11484;50.858;4.384;2023-06-04T04:39:25;14.10;84.30
22635;DHT22;11484;50.858;4.384;2023-06-04T04:41:54;14.10;84.30
22635;DHT22;11484;50.858;4.384;2023-06-04T04:44:20;14.10;84.30
22635;DHT22;11484;50.858;4.384;2023-06-04T04:46:47;14.10;84.30
22635;DHT22;11484;50.858;4.384;2023-06-04T04:49:13;14.20;84.40
22635;DHT22;11484;50.858;4.384;2023-06-04T04:51:39;14.20;84.70
22635;DHT22;11484;50.858;4.384;2023-06-04T04:54:04;14.10;85.10
22635;DHT22;11484;50.858;4.384;2023-06-04T04:56:33;14.10;85.70
22635;DHT22;11484;50.858;4.384;2023-06-04T04:59:00;14.10;85.60
22635;DHT22;11484;50.858;4.384;2023-06-04T05:01:26;14.20;85.50
22635;DHT22;11484;50.858;4.384;2023-06-04T05:03:52;14.20;85.90
22635;DHT22;11484;50.858;4.384;2023-06-04T05:06:17;14.20;86.20
22635;DHT22;11484;50.858;4.384;2023-06-04T05:08:43;14.20;86.40
22635;DHT22;11484;50.858;4.384;2023-06-04T05:11:09;14.20;86.50
22635;DHT22;11484;50.858;4.384;2023-06-04T05:13:35;14.30;86.60
22635;DHT22;11484;50.858;4.384;2023-06-04T05:16:02;14.30;86.90
22635;DHT22;11484;50.858;4.384;2023-06-04T05:18:32;14.30;87.00
22635;DHT22;11484;50.858;4.384;2023-06-04T05:20:58;14.20;87.30
22635;DHT22;11484;50.858;4.384;2023-06-04T05:23:26;14.30;87.40
22635;DHT22;11484;50.858;4.384;2023-06-04T05:25:52;14.40;87.40
22635;DHT22;11484;50.858;4.384;2023-06-04T05:28:18;14.40;87.00
22635;DHT22;11484;50.858;4.384;2023-06-04T05:30:44;14.50;87.20
22635;DHT22;11484;50.858;4.384;2023-06-04T05:33:10;14.60;87.10
22635;DHT22;11484;50.858;4.384;2023-06-04T05:35:46;14.80;86.40
22635;DHT22;11484;50.858;4.384;2023-06-04T05:38:12;15.00;85.50
22635;DHT22;11484;50.858;4.384;2023-06-04T05:40:44;14.90;85.60
22635;DHT22;11484;50.858;4.384;2023-06-04T05:43:11;15.10;85.50
22635;DHT22;11484;50.858;4.384;2023-06-04T05:45:36;15.30;85.30
22635;DHT22;11484;50.858;4.384;2023-06-04T05:48:03;15.50;84.90
22635;DHT22;11484;50.858;4.384;2023-06-04T05:50:29;15.70;83.50
22635;DHT22;11484;50.858;4.384;2023-06-04T05:52:55;15.90;82.80
22635;DHT22;11484;50.858;4.384;2023-06-04T05:55:22;16.00;82.50
22635;DHT22;11484;50.858;4.384;2023-06-04T05:57:48;16.20;81.40
22635;DHT22;11484;50.858;4.384;2023-06-04T06:00:14;16.30;81.30
22635;DHT22;11484;50.858;4.384;2023-06-04T06:02:40;16.50;81.20
22635;DHT22;11484;50.858;4.384;2023-06-04T06:05:06;16.90;80.10
22635;DHT22;11484;50.858;4.384;2023-06-04T06:07:34;17.50;77.40
22635;DHT22;11484;50.858;4.384;2023-06-04T06:10:00;18.60;76.50
22635;DHT22;11484;50.858;4.384;2023-06-04T06:12:26;20.40;71.30
22635;DHT22;11484;50.858;4.384;2023-06-04T06:14:51;21.80;66.00
22635;DHT22;11484;50.858;4.384;2023-06-04T06:17:17;22.10;63.50
22635;DHT22;11484;50.858;4.384;2023-06-04T06:19:43;23.20;61.20
22635;DHT22;11484;50.858;4.384;2023-06-04T06:22:11;23.90;58.00
22635;DHT22;11484;50.858;4.384;2023-06-04T06:24:39;25.00;55.90
22635;DHT22;11484;50.858;4.384;2023-06-04T06:27:04;25.20;54.60
22635;DHT22;11484;50.858;4.384;2023-06-04T06:29:30;25.60;53.80
22635;DHT22;11484;50.858;4.384;2023-06-04T06:31:56;24.90;54.20
22635;DHT22;11484;50.858;4.384;2023-06-04T06:34:22;26.10;53.60
22635;DHT22;11484;50.858;4.384;2023-06-04T06:36:47;27.00;51.40
22635;DHT22;11484;50.858;4.384;2023-06-04T06:39:13;26.20;51.40
22635;DHT22;11484;50.858;4.384;2023-06-04T06:41:39;26.80;51.20
22635;DHT22;11484;50.858;4.384;2023-06-04T06:44:05;26.60;50.40
22635;DHT22;11484;50.858;4.384;2023-06-04T06:46:31;27.50;49.30
22635;DHT22;11484;50.858;4.384;2023-06-04T06:48:57;27.40;48.50
22635;DHT22;11484;50.858;4.384;2023-06-04T06:51:22;27.80;48.50
22635;DHT22;11484;50.858;4.384;2023-06-04T06:53:51;28.40;46.90
22635;DHT22;11484;50.858;4.384;2023-06-04T06:56:17;27.70;48.00
22635;DHT22;11484;50.858;4.384;2023-06-04T06:58:44;27.50;47.80
22635;DHT22;11484;50.858;4.384;2023-06-04T07:01:11;28.70;46.70
22635;DHT22;11484;50.858;4.384;2023-06-04T07:03:36;29.40;45.30
22635;DHT22;11484;50.858;4.384;2023-06-04T07:06:03;28.80;44.40
22635;DHT22;11484;50.858;4.384;2023-06-04T07:08:29;28.80;44.90
22635;DHT22;11484;50.858;4.384;2023-06-04T07:10:55;28.60;44.60
22635;DHT22;11484;50.858;4.384;2023-06-04T07:13:21;28.60;44.40
22635;DHT22;11484;50.858;4.384;2023-06-04T07:15:46;28.20;45.70
22635;DHT22;11484;50.858;4.384;2023-06-04T07:18:12;27.10;45.80
22635;DHT22;11484;50.858;4.384;2023-06-04T07:20:38;27.70;47.00
22635;DHT22;11484;50.858;4.384;2023-06-04T07:23:04;28.60;45.70
22635;DHT22;11484;50.858;4.384;2023-06-04T07:25:29;28.80;43.80
22635;DHT22;11484;50.858;4.384;2023-06-04T07:27:55;28.20;43.90
22635;DHT22;11484;50.858;4.384;2023-06-04T07:30:27;28.60;43.80
22635;DHT22;11484;50.858;4.384;2023-06-04T07:32:52;28.40;44.10
22635;DHT22;11484;50.858;4.384;2023-06-04T07:35:18;29.30;44.20
22635;DHT22;11484;50.858;4.384;2023-06-04T07:37:44;29.30;43.70
22635;DHT22;11484;50.858;4.384;2023-06-04T07:40:11;29.90;41.60
22635;DHT22;11484;50.858;4.384;2023-06-04T07:42:37;29.50;42.00
22635;DHT22;11484;50.858;4.384;2023-06-04T07:45:03;29.70;41.00
22635;DHT22;11484;50.858;4.384;2023-06-04T07:47:29;29.70;41.60
22635;DHT22;11484;50.858;4.384;2023-06-04T07:49:55;28.70;41.40
22635;DHT22;11484;50.858;4.384;2023-06-04T07:52:20;29.60;41.90
22635;DHT22;11484;50.858;4.384;2023-06-04T07:54:46;28.70;42.00
22635;DHT22;11484;50.858;4.384;2023-06-04T07:57:12;29.00;42.30
22635;DHT22;11484;50.858;4.384;2023-06-04T07:59:38;28.90;42.30
22635;DHT22;11484;50.858;4.384;2023-06-04T08:02:03;28.90;42.90
22635;DHT22;11484;50.858;4.384;2023-06-04T08:04:30;29.00;42.80
22635;DHT22;11484;50.858;4.384;2023-06-04T08:06:56;29.60;41.70
22635;DHT22;11484;50.858;4.384;2023-06-04T08:09:22;29.20;41.80
22635;DHT22;11484;50.858;4.384;2023-06-04T08:11:49;29.70;41.20
22635;DHT22;11484;50.858;4.384;2023-06-04T08:14:14;29.50;41.40
22635;DHT22;11484;50.858;4.384;2023-06-04T08:16:40;30.40;40.60
22635;DHT22;11484;50.858;4.384;2023-06-04T08:19:07;31.20;39.40
22635;DHT22;11484;50.858;4.384;2023-06-04T08:21:33;30.60;39.90
22635;DHT22;11484;50.858;4.384;2023-06-04T08:23:59;30.80;39.10
22635;DHT22;11484;50.858;4.384;2023-06-04T08:26:26;30.70;39.40
22635;DHT22;11484;50.858;4.384;2023-06-04T08:28:53;31.20;38.70
22635;DHT22;11484;50.858;4.384;2023-06-04T08:31:18;30.60;38.90
22635;DHT22;11484;50.858;4.384;2023-06-04T08:33:48;31.30;38.80
22635;DHT22;11484;50.858;4.384;2023-06-04T08:36:14;32.50;37.70
22635;DHT22;11484;50.858;4.384;2023-06-04T08:38:41;31.90;37.30
22635;DHT22;11484;50.858;4.384;2023-06-04T08:41:24;31.60;37.40
22635;DHT22;11484;50.858;4.384;2023-06-04T08:43:56;31.30;38.00
22635;DHT22;11484;50.858;4.384;2023-06-04T08:46:23;32.10;37.10
22635;DHT22;11484;50.858;4.384;2023-06-04T08:48:50;33.30;36.50
22635;DHT22;11484;50.858;4.384;2023-06-04T08:51:17;34.00;35.00
22635;DHT22;11484;50.858;4.384;2023-06-04T08:53:44;33.40;35.60
22635;DHT22;11484;50.858;4.384;2023-06-04T08:56:13;34.00;35.50
22635;DHT22;11484;50.858;4.384;2023-06-04T08:58:40;34.50;34.20
22635;DHT22;11484;50.858;4.384;2023-06-04T09:01:07;33.60;34.40
22635;DHT22;11484;50.858;4.384;2023-06-04T09:03:33;33.80;34.30
22635;DHT22;11484;50.858;4.384;2023-06-04T09:06:03;34.00;34.30
22635;DHT22;11484;50.858;4.384;2023-06-04T09:08:31;33.80;33.70
22635;DHT22;11484;50.858;4.384;2023-06-04T09:11:05;34.30;34.40
22635;DHT22;11484;50.858;4.384;2023-06-04T09:13:31;34.80;33.60
22635;DHT22;11484;50.858;4.384;2023-06-04T09:16:02;34.40;33.30
22635;DHT22;11484;50.858;4.384;2023-06-04T09:18:29;33.90;34.10
22635;DHT22;11484;50.858;4.384;2023-06-04T09:21:06;34.70;33.30
22635;DHT22;11484;50.858;4.384;2023-06-04T09:23:35;34.70;33.10
22635;DHT22;11484;50.858;4.384;2023-06-04T09:26:08;34.70;32.50
22635;DHT22;11484;50.858;4.384;2023-06-04T09:28:34;34.70;33.00
22635;DHT22;11484;50.858;4.384;2023-06-04T09:31:01;33.20;34.70
22635;DHT22;11484;50.858;4.384;2023-06-04T09:33:45;33.00;35.20
22635;DHT22;11484;50.858;4.384;2023-06-04T09:36:12;33.10;34.60
22635;DHT22;11484;50.858;4.384;2023-06-04T09:38:38;32.40;34.90
22635;DHT22;11484;50.858;4.384;2023-06-04T09:41:10;32.60;34.20
22635;DHT22;11484;50.858;4.384;2023-06-04T09:43:36;33.60;33.80
22635;DHT22;11484;50.858;4.384;2023-06-04T09:48:35;34.40;33.10
22635;DHT22;11484;50.858;4.384;2023-06-04T09:53:37;33.30;34.30
22635;DHT22;11484;50.858;4.384;2023-06-04T09:56:04;33.90;33.60
22635;DHT22;11484;50.858;4.384;2023-06-04T09:58:30;33.60;32.70
22635;DHT22;11484;50.858;4.384;2023-06-04T10:00:58;32.70;34.30
22635;DHT22;11484;50.858;4.384;2023-06-04T10:03:24;33.30;34.70
22635;DHT22;11484;50.858;4.384;2023-06-04T10:05:54;32.80;33.50
22635;DHT22;11484;50.858;4.384;2023-06-04T10:08:22;33.30;34.10
22635;DHT22;11484;50.858;4.384;2023-06-04T10:10:50;33.40;33.70
22635;DHT22;11484;50.858;4.384;2023-06-04T10:13:18;33.00;33.30
22635;DHT22;11484;50.858;4.384;2023-06-04T10:15:46;32.00;33.70
22635;DHT22;11484;50.858;4.384;2023-06-04T10:18:14;30.50;36.00
22635;DHT22;11484;50.858;4.384;2023-06-04T10:20:41;31.30;36.30
22635;DHT22;11484;50.858;4.384;2023-06-04T10:23:07;30.70;36.60
22635;DHT22;11484;50.858;4.384;2023-06-04T10:25:37;31.00;37.20
22635;DHT22;11484;50.858;4.384;2023-06-04T10:28:03;30.60;37.10
22635;DHT22;11484;50.858;4.384;2023-06-04T10:30:32;30.20;37.20
22635;DHT22;11484;50.858;4.384;2023-06-04T10:32:58;29.60;36.70
22635;DHT22;11484;50.858;4.384;2023-06-04T10:35:34;29.70;37.00
22635;DHT22;11484;50.858;4.384;2023-06-04T10:38:13;29.70;37.70
22635;DHT22;11484;50.858;4.384;2023-06-04T10:40:40;29.90;37.40
22635;DHT22;11484;50.858;4.384;2023-06-04T10:43:09;29.50;37.30
22635;DHT22;11484;50.858;4.384;2023-06-04T10:45:36;29.10;37.60
22635;DHT22;11484;50.858;4.384;2023-06-04T10:48:10;28.70;38.50
22635;DHT22;11484;50.858;4.384;2023-06-04T10:50:48;28.20;38.70
22635;DHT22;11484;50.858;4.384;2023-06-04T10:53:14;28.50;38.90
22635;DHT22;11484;50.858;4.384;2023-06-04T10:55:44;28.30;38.60
22635;DHT22;11484;50.858;4.384;2023-06-04T10:58:11;27.90;39.00
22635;DHT22;11484;50.858;4.384;2023-06-04T11:00:44;27.20;40.10
22635;DHT22;11484;50.858;4.384;2023-06-04T11:03:15;26.40;40.60
22635;DHT22;11484;50.858;4.384;2023-06-04T11:05:46;26.30;41.50
22635;DHT22;11484;50.858;4.384;2023-06-04T11:08:12;26.20;41.50
22635;DHT22;11484;50.858;4.384;2023-06-04T11:10:44;26.00;42.60
22635;DHT22;11484;50.858;4.384;2023-06-04T11:13:10;25.90;41.60
22635;DHT22;11484;50.858;4.384;2023-06-04T11:15:40;26.00;41.70
22635;DHT22;11484;50.858;4.384;2023-06-04T11:18:06;25.80;42.00
22635;DHT22;11484;50.858;4.384;2023-06-04T11:20:31;25.90;42.30
22635;DHT22;11484;50.858;4.384;2023-06-04T11:22:58;25.80;42.30
22635;DHT22;11484;50.858;4.384;2023-06-04T11:25:29;25.70;42.10
22635;DHT22;11484;50.858;4.384;2023-06-04T11:27:57;25.50;42.40
22635;DHT22;11484;50.858;4.384;2023-06-04T11:30:24;25.50;41.90
22635;DHT22;11484;50.858;4.384;2023-06-04T11:32:50;25.70;42.10
22635;DHT22;11484;50.858;4.384;2023-06-04T11:35:16;25.70;42.80
22635;DHT22;11484;50.858;4.384;2023-06-04T11:37:42;25.80;41.70
22635;DHT22;11484;50.858;4.384;2023-06-04T11:40:19;25.80;41.60
22635;DHT22;11484;50.858;4.384;2023-06-04T11:42:46;25.60;42.00
22635;DHT22;11484;50.858;4.384;2023-06-04T11:45:13;25.60;42.50
22635;DHT22;11484;50.858;4.384;2023-06-04T11:47:48;25.60;43.30
22635;DHT22;11484;50.858;4.384;2023-06-04T11:50:14;25.60;42.90
22635;DHT22;11484;50.858;4.384;2023-06-04T11:52:41;25.50;42.30
22635;DHT22;11484;50.858;4.384;2023-06-04T11:55:11;25.40;42.90
22635;DHT22;11484;50.858;4.384;2023-06-04T11:57:38;25.20;42.90
22635;DHT22;11484;50.858;4.384;2023-06-04T12:00:05;25.20;42.90
22635;DHT22;11484;50.858;4.384;2023-06-04T12:02:35;25.20;42.30
22635;DHT22;11484;50.858;4.384;2023-06-04T12:05:15;25.00;41.90
22635;DHT22;11484;50.858;4.384;2023-06-04T12:07:41;25.10;42.60
22635;DHT22;11484;50.858;4.384;2023-06-04T12:10:10;24.90;43.20
22635;DHT22;11484;50.858;4.384;2023-06-04T12:12:37;25.00;43.30
22635;DHT22;11484;50.858;4.384;2023-06-04T12:15:04;25.10;42.00
22635;DHT22;11484;50.858;4.384;2023-06-04T12:17:31;25.00;42.50
22635;DHT22;11484;50.858;4.384;2023-06-04T12:19:57;25.20;42.30
22635;DHT22;11484;50.858;4.384;2023-06-04T12:22:24;25.10;42.40
22635;DHT22;11484;50.858;4.384;2023-06-04T12:24:56;25.00;42.90
22635;DHT22;11484;50.858;4.384;2023-06-04T12:27:23;25.10;42.70
22635;DHT22;11484;50.858;4.384;2023-06-04T12:30:09;25.10;42.40
22635;DHT22;11484;50.858;4.384;2023-06-04T12:32:35;24.90;42.10
22635;DHT22;11484;50.858;4.384;2023-06-04T12:35:01;24.70;42.80
22635;DHT22;11484;50.858;4.384;2023-06-04T12:37:27;24.50;43.20
22635;DHT22;11484;50.858;4.384;2023-06-04T12:39:53;24.40;43.60
22635;DHT22;11484;50.858;4.384;2023-06-04T12:42:20;24.50;43.80
22635;DHT22;11484;50.858;4.384;2023-06-04T12:44:46;24.50;43.90
22635;DHT22;11484;50.858;4.384;2023-06-04T12:47:12;24.50;43.00
22635;DHT22;11484;50.858;4.384;2023-06-04T12:49:39;24.50;43.20
22635;DHT22;11484;50.858;4.384;2023-06-04T12:52:05;24.70;43.30
22635;DHT22;11484;50.858;4.384;2023-06-04T12:54:32;24.90;43.20
22635;DHT22;11484;50.858;4.384;2023-06-04T12:56:58;24.80;42.40
22635;DHT22;11484;50.858;4.384;2023-06-04T12:59:27;24.80;42.20
22635;DHT22;11484;50.858;4.384;2023-06-04T13:01:54;24.80;42.80
22635;DHT22;11484;50.858;4.384;2023-06-04T13:04:20;24.70;42.50
22635;DHT22;11484;50.858;4.384;2023-06-04T13:06:46;24.80;43.00
22635;DHT22;11484;50.858;4.384;2023-06-04T13:09:12;24.80;42.40
22635;DHT22;11484;50.858;4.384;2023-06-04T13:11:39;24.90;42.10
22635;DHT22;11484;50.858;4.384;2023-06-04T13:14:05;24.90;42.00
22635;DHT22;11484;50.858;4.384;2023-06-04T13:16:31;24.90;41.60
22635;DHT22;11484;50.858;4.384;2023-06-04T13:18:57;24.80;42.10
22635;DHT22;11484;50.858;4.384;2023-06-04T13:21:23;24.80;42.30
22635;DHT22;11484;50.858;4.384;2023-06-04T13:23:49;24.70;42.20
22635;DHT22;11484;50.858;4.384;2023-06-04T13:26:18;24.90;42.30
22635;DHT22;11484;50.858;4.384;2023-06-04T13:28:44;25.00;41.70
22635;DHT22;11484;50.858;4.384;2023-06-04T13:31:10;24.90;41.90
22635;DHT22;11484;50.858;4.384;2023-06-04T13:33:36;24.90;41.90
22635;DHT22;11484;50.858;4.384;2023-06-04T13:36:05;24.80;41.50
22635;DHT22;11484;50.858;4.384;2023-06-04T13:38:34;24.60;41.80
22635;DHT22;11484;50.858;4.384;2023-06-04T13:40:59;24.60;42.30
22635;DHT22;11484;50.858;4.384;2023-06-04T13:43:25;24.70;42.10
22635;DHT22;11484;50.858;4.384;2023-06-04T13:45:51;24.80;41.40
22635;DHT22;11484;50.858;4.384;2023-06-04T13:48:17;24.90;41.30
22635;DHT22;11484;50.858;4.384;2023-06-04T13:50:43;24.90;42.20
22635;DHT22;11484;50.858;4.384;2023-06-04T13:53:10;24.70;42.40
22635;DHT22;11484;50.858;4.384;2023-06-04T13:55:36;24.70;42.20
22635;DHT22;11484;50.858;4.384;2023-06-04T13:58:02;24.80;41.90
22635;DHT22;11484;50.858;4.384;2023-06-04T14:00:27;24.80;41.90
22635;DHT22;11484;50.858;4.384;2023-06-04T14:02:55;24.80;42.30
22635;DHT22;11484;50.858;4.384;2023-06-04T14:05:21;24.80;40.90
22635;DHT22;11484;50.858;4.384;2023-06-04T14:07:47;24.90;41.30
22635;DHT22;11484;50.858;4.384;2023-06-04T14:10:13;24.80;40.90
22635;DHT22;11484;50.858;4.384;2023-06-04T14:12:39;24.60;41.30
22635;DHT22;11484;50.858;4.384;2023-06-04T14:15:07;24.60;41.40
22635;DHT22;11484;50.858;4.384;2023-06-04T14:17:34;24.40;41.70
22635;DHT22;11484;50.858;4.384;2023-06-04T14:20:01;24.50;42.30
22635;DHT22;11484;50.858;4.384;2023-06-04T14:22:26;24.40;41.50
22635;DHT22;11484;50.858;4.384;2023-06-04T14:24:52;24.40;42.00
22635;DHT22;11484;50.858;4.384;2023-06-04T14:27:18;24.50;41.70
22635;DHT22;11484;50.858;4.384;2023-06-04T14:29:43;24.70;41.30
22635;DHT22;11484;50.858;4.384;2023-06-04T14:32:09;24.70;40.60
22635;DHT22;11484;50.858;4.384;2023-06-04T14:34:35;24.80;40.10
22635;DHT22;11484;50.858;4.384;2023-06-04T14:37:04;24.70;40.30
22635;DHT22;11484;50.858;4.384;2023-06-04T14:39:30;24.60;40.40
22635;DHT22;11484;50.858;4.384;2023-06-04T14:41:55;24.50;40.50
22635;DHT22;11484;50.858;4.384;2023-06-04T14:44:21;24.60;40.60
22635;DHT22;11484;50.858;4.384;2023-06-04T14:46:48;24.40;40.40
22635;DHT22;11484;50.858;4.384;2023-06-04T14:49:15;24.40;40.80
22635;DHT22;11484;50.858;4.384;2023-06-04T14:51:41;24.50;40.70
22635;DHT22;11484;50.858;4.384;2023-06-04T14:54:06;24.50;40.40
22635;DHT22;11484;50.858;4.384;2023-06-04T14:56:32;24.50;40.40
22635;DHT22;11484;50.858;4.384;2023-06-04T14:58:58;24.70;41.10
22635;DHT22;11484;50.858;4.384;2023-06-04T15:01:26;24.70;40.50
22635;DHT22;11484;50.858;4.384;2023-06-04T15:03:51;24.60;40.80
22635;DHT22;11484;50.858;4.384;2023-06-04T15:06:17;24.50;40.60
22635;DHT22;11484;50.858;4.384;2023-06-04T15:08:43;24.30;40.60
22635;DHT22;11484;50.858;4.384;2023-06-04T15:11:10;24.20;41.30
22635;DHT22;11484;50.858;4.384;2023-06-04T15:13:36;24.20;40.90
22635;DHT22;11484;50.858;4.384;2023-06-04T15:16:02;24.30;40.60
22635;DHT22;11484;50.858;4.384;2023-06-04T15:18:28;24.30;40.50
22635;DHT22;11484;50.858;4.384;2023-06-04T15:20:54;24.40;40.30
22635;DHT22;11484;50.858;4.384;2023-06-04T15:23:20;24.40;40.10
22635;DHT22;11484;50.858;4.384;2023-06-04T15:25:45;24.30;40.00
22635;DHT22;11484;50.858;4.384;2023-06-04T15:28:11;24.20;40.60
22635;DHT22;11484;50.858;4.384;2023-06-04T15:30:36;24.20;40.00
22635;DHT22;11484;50.858;4.384;2023-06-04T15:33:02;24.10;40.20
22635;DHT22;11484;50.858;4.384;2023-06-04T15:35:28;24.10;40.10
22635;DHT22;11484;50.858;4.384;2023-06-04T15:37:54;24.10;40.40
22635;DHT22;11484;50.858;4.384;2023-06-04T15:40:20;24.20;40.40